PWSweather.com
Personal Weather Stations
Station Observations
KVAGLENALL
West Henrico, Glen Allen, VA 23060-6503

West HenricoGlen Allen, VA 23060-6503

Lat: 37.6554, Lon: -77.5693

Elevation: 273

Station Type: Davis Vantage Pro II

www.glenallenweather.com

High Low Average
Temperature 83.1°F28.4°C 66.7°F19.3°C 73.8°F23.2°C
Dew Point 74.3°F23.5°C 56.3°F13.5°C 68.5°F20.3°C
Winds 10.0 mph 16.1 kmh 2.0 mph 3.2 kmh 6.0 mph S9.7 kmh S
Wind Gusts 19.2 mph30.9 kmh 2.0 mph3.2 kmh 9.0 mph14.5 kmh
Humidity 95% 69% 84%
Pressure 30.06 in1017.9 mb 29.81 in1009.5 mb -
Precipitation 0.00 in0.0 mm - -
Hour Temp Dew Point Humidity Winds Wind Gusts Pressure Precip Precip Rate Daily Precip Total
12:00 AM 67.2°F19.6°C 55.9°F13.3°C 67% 3.0 mph S4.8 kmh S 6.1 mph9.8 kmh 30.06 in1017.9 mb 0.00 in0.0 mm 0.00 in0.0 mm 0.00 in0.0 mm
01:00 AM 66.7°F19.3°C 56.3°F13.5°C 69% 4.0 mph S6.4 kmh S 5.1 mph8.2 kmh 30.06 in1017.9 mb 0.00 in0.0 mm 0.00 in0.0 mm 0.00 in0.0 mm
02:00 AM 67.2°F19.6°C 57.9°F14.4°C 72% 2.0 mph S3.2 kmh S 2.0 mph3.2 kmh 30.03 in1016.9 mb 0.00 in0.0 mm 0.00 in0.0 mm 0.00 in0.0 mm
03:00 AM 68.9°F20.5°C 61.4°F16.3°C 77% 5.0 mph S8.0 kmh S 7.1 mph11.4 kmh 30.03 in1016.9 mb 0.00 in0.0 mm 0.00 in0.0 mm 0.00 in0.0 mm
04:00 AM 68.9°F20.5°C 62.9°F17.2°C 81% 5.0 mph SSW8.0 kmh SSW 11.1 mph17.9 kmh 30.01 in1016.3 mb 0.00 in0.0 mm 0.00 in0.0 mm 0.00 in0.0 mm
05:00 AM 68.4°F20.2°C 62.7°F17.1°C 82% 3.0 mph S4.8 kmh S 5.1 mph8.2 kmh 30.01 in1016.3 mb 0.00 in0.0 mm 0.00 in0.0 mm 0.00 in0.0 mm
06:00 AM 66.7°F19.3°C 62.4°F16.9°C 86% 6.0 mph SSW9.7 kmh SSW 6.1 mph9.8 kmh 30.00 in1015.9 mb 0.00 in0.0 mm 0.00 in0.0 mm 0.00 in0.0 mm
07:00 AM 68.4°F20.2°C 64.8°F18.2°C 88% 7.0 mph SW11.3 kmh SW 11.1 mph17.9 kmh 30.00 in1015.9 mb 0.00 in0.0 mm 0.00 in0.0 mm 0.00 in0.0 mm
08:00 AM 71.8°F22.1°C 67.4°F19.7°C 86% 10.0 mph SSW16.1 kmh SSW 12.1 mph19.5 kmh 30.00 in1015.9 mb 0.00 in0.0 mm 0.00 in0.0 mm 0.00 in0.0 mm
09:00 AM 74.1°F23.4°C 69.3°F20.7°C 85% 10.0 mph SW16.1 kmh SW 13.1 mph21.1 kmh 30.00 in1015.9 mb 0.00 in0.0 mm 0.00 in0.0 mm 0.00 in0.0 mm
10:00 AM 76.4°F24.7°C 70.5°F21.4°C 82% 4.0 mph SSW6.4 kmh SSW 8.1 mph13.0 kmh 29.99 in1015.6 mb 0.00 in0.0 mm 0.00 in0.0 mm 0.00 in0.0 mm
11:00 AM 78.4°F25.8°C 71.3°F21.8°C 79% 9.0 mph S14.5 kmh S 11.1 mph17.9 kmh 29.97 in1014.9 mb 0.00 in0.0 mm 0.00 in0.0 mm 0.00 in0.0 mm
12:00 PM 80.4°F26.9°C 72.2°F22.3°C 76% 9.0 mph SSW14.5 kmh SSW 11.1 mph17.9 kmh 29.95 in1014.2 mb 0.00 in0.0 mm 0.00 in0.0 mm 0.00 in0.0 mm
01:00 PM 82.0°F27.8°C 72.9°F22.7°C 74% 8.0 mph SW12.9 kmh SW 13.1 mph21.1 kmh 29.93 in1013.5 mb 0.00 in0.0 mm 0.00 in0.0 mm 0.00 in0.0 mm
02:00 PM 82.9°F28.3°C 73.4°F23.0°C 73% 6.0 mph SSW9.7 kmh SSW 11.1 mph17.9 kmh 29.91 in1012.9 mb 0.00 in0.0 mm 0.00 in0.0 mm 0.00 in0.0 mm
03:00 PM 83.1°F28.4°C 74.0°F23.3°C 74% 9.0 mph S14.5 kmh S 19.2 mph30.9 kmh 29.88 in1011.9 mb 0.00 in0.0 mm 0.00 in0.0 mm 0.00 in0.0 mm
04:00 PM 81.4°F27.4°C 74.3°F23.5°C 79% 9.0 mph SSW14.5 kmh SSW 11.1 mph17.9 kmh 29.85 in1010.8 mb 0.00 in0.0 mm 0.00 in0.0 mm 0.00 in0.0 mm
05:00 PM 70.7°F21.5°C 69.2°F20.7°C 95% 4.0 mph SSW6.4 kmh SSW 7.1 mph11.4 kmh 29.88 in1011.9 mb 1.10 in27.9 mm 0.00 in0.0 mm 1.10 in27.9 mm
06:00 PM 74.5°F23.6°C 72.0°F22.2°C 92% 4.0 mph SSW6.4 kmh SSW 4.0 mph6.4 kmh 29.82 in1009.8 mb 0.13 in3.3 mm 0.00 in0.0 mm 1.10 in27.9 mm
07:00 PM 73.6°F23.1°C 71.4°F21.9°C 93% 2.0 mph S3.2 kmh S 3.0 mph4.8 kmh 29.81 in1009.5 mb 0.00 in0.0 mm 0.00 in0.0 mm 1.10 in27.9 mm
08:00 PM 73.9°F23.3°C 72.0°F22.2°C 94% 4.0 mph SE6.4 kmh SE 7.1 mph11.4 kmh 29.83 in1010.2 mb 0.00 in0.0 mm 0.00 in0.0 mm 1.10 in27.9 mm
09:00 PM 73.9°F23.3°C 72.4°F22.4°C 95% 7.0 mph SSW11.3 kmh SSW 9.1 mph14.6 kmh 29.84 in1010.5 mb 0.00 in0.0 mm 0.00 in0.0 mm 1.10 in27.9 mm
10:00 PM 73.3°F22.9°C 71.4°F21.9°C 94% 4.0 mph S6.4 kmh S 8.1 mph13.0 kmh 29.85 in1010.8 mb 0.00 in0.0 mm 0.00 in0.0 mm 1.10 in27.9 mm
11:00 PM 72.8°F22.7°C 70.9°F21.6°C 94% 6.0 mph SSW9.7 kmh SSW 9.1 mph14.6 kmh 29.85 in1010.8 mb 0.00 in0.0 mm 0.00 in0.0 mm 1.10 in27.9 mm